Time;durP1;ratioP1;P1;durP2;ratioP2;P2;SDS_P1;SDS_P2;PMS_P1;PMS_P2;Temp;Humidity;BMP_temperature;BMP_pressure;BME280_temperature;BME280_humidity;BME280_pressure;Samples;Min_cycle;Max_cycle;Signal;HPM_P1;HPM_P2
2022/11/05 00:18:37;;;;;;;4.38;3.58;;;;;;;;;;10145057;28;20052;-68
2022/11/05 00:28:43;;;;;;;4.43;3.40;;;;;;;;;;10144050;28;20430;-68
2022/11/05 00:33:40;;;;;;;4.22;3.70;;;;;;;;;;10120223;28;20055;-67
2022/11/05 00:38:34;;;;;;;3.97;3.25;;;;;;;;;;10133200;28;20126;-67
2022/11/05 00:53:53;;;;;;;7.35;5.30;;;;;;;;;;10130776;28;21731;-67
2022/11/05 00:58:47;;;;;;;8.93;6.15;;;;;;;;;;10139147;28;20445;-67
2022/11/05 01:03:41;;;;;;;5.82;5.22;;;;;;;;;;10141291;28;20079;-67
2022/11/05 01:08:43;;;;;;;8.50;6.18;;;;;;;;;;10138726;28;20052;-67
2022/11/05 01:13:37;;;;;;;7.88;5.82;;;;;;;;;;10139262;28;20060;-67
2022/11/05 01:18:30;;;;;;;12.18;4.93;;;;;;;;;;10140121;28;20118;-67
2022/11/05 01:23:24;;;;;;;4.53;4.13;;;;;;;;;;10138978;28;20071;-67
2022/11/05 01:28:18;;;;;;;4.90;4.40;;;;;;;;;;10138240;28;20499;-67
2022/11/05 01:33:12;;;;;;;11.15;4.90;;;;;;;;;;10140146;28;20052;-67
2022/11/05 01:38:06;;;;;;;5.30;4.80;;;;;;;;;;10145197;28;20056;-67
2022/11/05 01:43:00;;;;;;;12.38;5.70;;;;;;;;;;10146480;28;20069;-67
2022/11/05 01:47:56;;;;;;;9.07;5.53;;;;;;;;;;10141678;28;20041;-68
2022/11/05 01:52:53;;;;;;;6.90;6.15;;;;;;;;;;10140005;28;20488;-67
2022/11/05 01:57:46;;;;;;;6.80;6.10;;;;;;;;;;10127938;28;20049;-67
2022/11/05 02:02:40;;;;;;;9.25;6.53;;;;;;;;;;10146130;28;20067;-67
2022/11/05 02:07:34;;;;;;;8.65;7.85;;;;;;;;;;10159249;28;20052;-66
2022/11/05 02:12:30;;;;;;;9.38;7.40;;;;;;;;;;10145810;28;20052;-66
2022/11/05 02:17:55;;;;;;;11.10;9.15;;;;;;;;;;10132927;28;20127;-67
2022/11/05 02:23:12;;;;;;;12.88;7.90;;;;;;;;;;10145799;28;20140;-66
2022/11/05 02:28:08;;;;;;;7.68;6.88;;;;;;;;;;10145855;28;20067;-67
2022/11/05 02:33:15;;;;;;;7.95;7.18;;;;;;;;;;10145089;28;20052;-67
2022/11/05 02:38:31;;;;;;;7.95;6.22;;;;;;;;;;10145552;28;20127;-67
2022/11/05 02:44:21;;;;;;;6.60;5.90;;;;;;;;;;10135732;28;20098;-67
2022/11/05 02:49:22;;;;;;;6.03;5.40;;;;;;;;;;9979756;28;20514;-67
2022/11/05 02:54:31;;;;;;;8.90;4.95;;;;;;;;;;10152285;28;20422;-67
2022/11/05 02:59:24;;;;;;;7.35;4.72;;;;;;;;;;10133997;28;20051;-67
2022/11/05 03:04:20;;;;;;;6.03;4.93;;;;;;;;;;10151629;28;20474;-66
2022/11/05 03:09:41;;;;;;;7.03;5.68;;;;;;;;;;10136222;28;20143;-66
2022/11/05 03:14:34;;;;;;;6.75;4.93;;;;;;;;;;10167531;28;20123;-66
2022/11/05 03:20:00;;;;;;;6.35;5.28;;;;;;;;;;10164151;28;20083;-66
2022/11/05 03:25:05;;;;;;;6.47;5.88;;;;;;;;;;10127936;28;20080;-67
2022/11/05 03:30:02;;;;;;;6.80;5.78;;;;;;;;;;10150941;28;20049;-66
2022/11/05 03:34:59;;;;;;;9.48;6.05;;;;;;;;;;10150792;28;20052;-66
2022/11/05 03:39:56;;;;;;;7.07;6.38;;;;;;;;;;10143526;28;20055;-66
2022/11/05 03:44:53;;;;;;;11.13;7.22;;;;;;;;;;10143669;28;20049;-68
2022/11/05 03:50:08;;;;;;;7.35;6.65;;;;;;;;;;10133592;28;20048;-68
2022/11/05 03:55:02;;;;;;;8.25;7.05;;;;;;;;;;10121410;28;20061;-68
2022/11/05 03:59:56;;;;;;;8.90;7.18;;;;;;;;;;10151066;28;20052;-68
2022/11/05 04:04:49;;;;;;;10.07;7.45;;;;;;;;;;10149424;28;20492;-67
2022/11/05 04:14:55;;;;;;;11.10;8.38;;;;;;;;;;10149029;28;20119;-67
2022/11/05 04:25:01;;;;;;;9.52;8.02;;;;;;;;;;10148361;28;20163;-67
2022/11/05 04:35:07;;;;;;;12.15;7.88;;;;;;;;;;10148770;28;20263;-67
2022/11/05 04:40:00;;;;;;;8.27;7.28;;;;;;;;;;10144523;28;20048;-67
2022/11/05 04:44:54;;;;;;;8.93;7.22;;;;;;;;;;10150249;28;20097;-67
2022/11/05 04:49:48;;;;;;;6.97;6.28;;;;;;;;;;10149183;28;20131;-67
2022/11/05 04:54:41;;;;;;;7.30;5.90;;;;;;;;;;10153833;28;20507;-67
2022/11/05 04:59:35;;;;;;;7.13;6.13;;;;;;;;;;10146698;28;20049;-66
2022/11/05 05:04:28;;;;;;;7.90;6.53;;;;;;;;;;10146624;28;20079;-66
2022/11/05 05:09:22;;;;;;;6.28;5.68;;;;;;;;;;10146918;28;20109;-66
2022/11/05 05:14:16;;;;;;;5.47;4.85;;;;;;;;;;10147195;28;20048;-67
2022/11/05 05:19:09;;;;;;;6.80;5.03;;;;;;;;;;10147173;28;20049;-67
2022/11/05 05:24:25;;;;;;;5.93;4.88;;;;;;;;;;10147580;28;20049;-67
2022/11/05 05:29:19;;;;;;;5.68;4.55;;;;;;;;;;10155584;28;20513;-67
2022/11/05 05:34:14;;;;;;;4.13;3.35;;;;;;;;;;10146991;28;20056;-67
2022/11/05 05:39:11;;;;;;;4.20;3.67;;;;;;;;;;10145987;28;20040;-67
2022/11/05 05:44:06;;;;;;;5.68;3.08;;;;;;;;;;10147078;28;20059;-66
2022/11/05 05:49:01;;;;;;;3.78;3.03;;;;;;;;;;10146513;28;20131;-66
2022/11/05 05:54:05;;;;;;;4.95;3.05;;;;;;;;;;10144263;28;20131;-66
2022/11/05 05:58:59;;;;;;;3.47;2.85;;;;;;;;;;10144016;28;20045;-66
2022/11/05 06:03:53;;;;;;;3.33;3.03;;;;;;;;;;10146409;28;20158;-66
2022/11/05 06:08:47;;;;;;;3.67;2.67;;;;;;;;;;10136988;28;20411;-66
2022/11/05 06:13:42;;;;;;;4.50;2.42;;;;;;;;;;10136754;28;20143;-66
2022/11/05 06:18:35;;;;;;;2.40;2.20;;;;;;;;;;10136927;28;20512;-68
2022/11/05 06:23:31;;;;;;;5.60;3.05;;;;;;;;;;10143908;28;20052;-68
2022/11/05 06:28:24;;;;;;;3.53;2.25;;;;;;;;;;10144555;28;20491;-67
2022/11/05 06:33:18;;;;;;;2.85;2.58;;;;;;;;;;10149341;28;20076;-67
2022/11/05 06:38:11;;;;;;;3.55;2.33;;;;;;;;;;10142498;28;20171;-68
2022/11/05 06:43:05;;;;;;;3.47;2.90;;;;;;;;;;10147571;28;20041;-67
2022/11/05 06:47:58;;;;;;;3.58;2.92;;;;;;;;;;10143083;28;20048;-67
2022/11/05 06:52:56;;;;;;;4.60;2.60;;;;;;;;;;10144693;28;20053;-67
2022/11/05 06:57:50;;;;;;;3.95;2.72;;;;;;;;;;10134930;28;20523;-68
2022/11/05 07:02:43;;;;;;;5.55;2.97;;;;;;;;;;10145137;28;20083;-67
2022/11/05 07:07:37;;;;;;;3.85;2.33;;;;;;;;;;10145179;28;20044;-68
2022/11/05 07:12:30;;;;;;;8.10;3.40;;;;;;;;;;10130552;28;20053;-67
2022/11/05 07:17:26;;;;;;;5.72;2.58;;;;;;;;;;10124294;28;20059;-68
2022/11/05 07:22:19;;;;;;;5.10;2.70;;;;;;;;;;10160628;28;20071;-69
2022/11/05 07:27:13;;;;;;;2.63;2.38;;;;;;;;;;10173930;28;20056;-67
2022/11/05 07:32:07;;;;;;;5.50;2.08;;;;;;;;;;10171055;28;20059;-66
2022/11/05 07:37:01;;;;;;;3.75;2.45;;;;;;;;;;10178513;28;20060;-66
2022/11/05 07:41:56;;;;;;;2.58;2.30;;;;;;;;;;10169155;28;20062;-68
2022/11/05 07:46:57;;;;;;;2.83;2.42;;;;;;;;;;10170438;28;20502;-66
2022/11/05 07:51:52;;;;;;;5.03;2.60;;;;;;;;;;10167559;28;20453;-69
2022/11/05 07:56:47;;;;;;;5.80;2.88;;;;;;;;;;10170084;28;20045;-69
2022/11/05 08:01:42;;;;;;;8.90;2.40;;;;;;;;;;10171812;28;20483;-66
2022/11/05 08:06:36;;;;;;;4.45;2.28;;;;;;;;;;10133409;28;20048;-70
2022/11/05 08:11:31;;;;;;;2.55;2.20;;;;;;;;;;10117977;28;20127;-69
2022/11/05 08:16:25;;;;;;;3.22;2.10;;;;;;;;;;10116319;28;20063;-68
2022/11/05 08:21:19;;;;;;;6.80;3.78;;;;;;;;;;10116700;28;20750;-72
2022/11/05 08:26:13;;;;;;;4.28;2.78;;;;;;;;;;10121499;28;20439;-67
2022/11/05 08:31:07;;;;;;;4.50;2.88;;;;;;;;;;10131372;28;20057;-68
2022/11/05 08:36:02;;;;;;;13.30;3.58;;;;;;;;;;10117836;28;20603;-68
2022/11/05 08:40:57;;;;;;;3.40;2.63;;;;;;;;;;10115057;28;20136;-68
2022/11/05 08:45:50;;;;;;;6.05;2.95;;;;;;;;;;10116558;28;20504;-68
2022/11/05 08:50:44;;;;;;;3.90;2.42;;;;;;;;;;10119413;28;20454;-68
2022/11/05 08:55:37;;;;;;;8.27;2.65;;;;;;;;;;10126496;28;20055;-68
2022/11/05 09:00:34;;;;;;;2.97;2.78;;;;;;;;;;10144745;28;20056;-69
2022/11/05 09:05:28;;;;;;;7.78;4.32;;;;;;;;;;10141330;28;20048;-71
2022/11/05 09:10:21;;;;;;;3.78;2.55;;;;;;;;;;10129754;28;20048;-70
2022/11/05 09:15:14;;;;;;;3.47;2.60;;;;;;;;;;10135020;28;20483;-70
2022/11/05 09:20:11;;;;;;;4.97;2.63;;;;;;;;;;10138130;28;20421;-69
2022/11/05 09:25:08;;;;;;;3.55;3.17;;;;;;;;;;10131665;28;20173;-70
2022/11/05 09:30:04;;;;;;;3.25;2.78;;;;;;;;;;10128159;28;20049;-71
2022/11/05 09:35:01;;;;;;;3.00;2.33;;;;;;;;;;10125988;28;20060;-70
2022/11/05 09:39:54;;;;;;;3.05;2.28;;;;;;;;;;10124633;28;20049;-71
2022/11/05 09:44:58;;;;;;;4.57;2.10;;;;;;;;;;10122963;28;20131;-70
2022/11/05 09:49:52;;;;;;;4.30;2.47;;;;;;;;;;10126207;28;20155;-70
2022/11/05 09:54:47;;;;;;;4.43;2.50;;;;;;;;;;10149844;28;20072;-69
2022/11/05 10:00:03;;;;;;;5.18;2.10;;;;;;;;;;10144837;28;20102;-69
2022/11/05 10:05:00;;;;;;;3.75;1.65;;;;;;;;;;10140021;28;20072;-70
2022/11/05 10:10:03;;;;;;;2.92;2.13;;;;;;;;;;10145763;28;20107;-69
2022/11/05 10:15:11;;;;;;;2.13;1.70;;;;;;;;;;10117929;28;20536;-68
2022/11/05 10:20:22;;;;;;;2.38;1.35;;;;;;;;;;10160168;28;20040;-69
2022/11/05 10:25:20;;;;;;;1.70;1.20;;;;;;;;;;10158121;28;20060;-69
2022/11/05 10:30:14;;;;;;;1.15;1.10;;;;;;;;;;10138005;28;20049;-69
2022/11/05 10:35:13;;;;;;;2.95;1.50;;;;;;;;;;10142085;28;20045;-70
2022/11/05 10:40:13;;;;;;;1.83;1.33;;;;;;;;;;10137220;28;20052;-69
2022/11/05 10:45:18;;;;;;;3.70;1.80;;;;;;;;;;10129421;28;20094;-69
2022/11/05 10:50:24;;;;;;;1.88;1.50;;;;;;;;;;10115738;28;20048;-69
2022/11/05 10:55:36;;;;;;;2.58;1.60;;;;;;;;;;10119001;28;20049;-69
2022/11/05 11:00:49;;;;;;;2.05;1.85;;;;;;;;;;10115452;28;20063;-69
2022/11/05 11:05:43;;;;;;;3.47;1.67;;;;;;;;;;10120437;28;20462;-69
2022/11/05 11:10:48;;;;;;;5.47;1.58;;;;;;;;;;10127783;28;20450;-69
2022/11/05 11:16:24;;;;;;;2.47;1.70;;;;;;;;;;10140187;28;20052;-69
2022/11/05 11:21:22;;;;;;;14.98;1.92;;;;;;;;;;10140027;28;20068;-69
2022/11/05 11:26:17;;;;;;;3.63;1.50;;;;;;;;;;10134985;28;20070;-69
2022/11/05 11:31:21;;;;;;;2.47;1.60;;;;;;;;;;10137198;28;20056;-69
2022/11/05 11:36:19;;;;;;;2.20;1.70;;;;;;;;;;10147007;28;20052;-69
2022/11/05 11:41:27;;;;;;;5.05;1.92;;;;;;;;;;10136265;28;20044;-69
2022/11/05 11:46:20;;;;;;;1.45;1.35;;;;;;;;;;10156184;28;20063;-69
2022/11/05 11:51:39;;;;;;;1.85;1.70;;;;;;;;;;10161593;28;20056;-69
2022/11/05 11:56:43;;;;;;;2.10;1.90;;;;;;;;;;10167761;28;20454;-71
2022/11/05 12:02:05;;;;;;;2.70;1.48;;;;;;;;;;10143170;28;20052;-71
2022/11/05 12:07:01;;;;;;;2.97;2.17;;;;;;;;;;10148829;28;20403;-71
2022/11/05 12:11:59;;;;;;;3.70;1.92;;;;;;;;;;10148642;28;20068;-71
2022/11/05 12:17:02;;;;;;;2.83;2.47;;;;;;;;;;10136667;28;20051;-71
2022/11/05 12:22:04;;;;;;;2.67;2.40;;;;;;;;;;10129830;28;20101;-71
2022/11/05 12:26:59;;;;;;;2.70;1.90;;;;;;;;;;10129939;28;20055;-71
2022/11/05 12:32:47;;;;;;;2.53;1.92;;;;;;;;;;10148502;28;20048;-71
2022/11/05 12:38:21;;;;;;;2.17;1.75;;;;;;;;;;10149134;28;20052;-72
2022/11/05 12:43:44;;;;;;;5.90;2.85;;;;;;;;;;10102371;28;20048;-72
2022/11/05 12:49:17;;;;;;;2.67;2.47;;;;;;;;;;10175874;28;20053;-72
2022/11/05 12:54:38;;;;;;;3.75;2.72;;;;;;;;;;10165488;28;20056;-71
2022/11/05 12:59:40;;;;;;;3.08;2.50;;;;;;;;;;10154073;28;20068;-73
2022/11/05 13:04:51;;;;;;;4.85;3.40;;;;;;;;;;10140597;28;20055;-70
2022/11/05 13:10:26;;;;;;;5.38;2.60;;;;;;;;;;10145584;28;20124;-70
2022/11/05 13:15:46;;;;;;;2.85;2.47;;;;;;;;;;10143646;28;20052;-70
2022/11/05 13:20:43;;;;;;;3.30;2.45;;;;;;;;;;10132133;28;20048;-70
2022/11/05 13:25:41;;;;;;;2.85;2.50;;;;;;;;;;10139283;28;20060;-70
2022/11/05 13:30:37;;;;;;;3.15;2.85;;;;;;;;;;10148998;28;20048;-70
2022/11/05 13:35:42;;;;;;;3.90;3.15;;;;;;;;;;10108785;28;20503;-69
2022/11/05 13:40:54;;;;;;;4.25;3.10;;;;;;;;;;10115506;28;20040;-70
2022/11/05 13:46:17;;;;;;;5.22;3.35;;;;;;;;;;10120819;28;20044;-70
2022/11/05 13:51:27;;;;;;;3.88;3.08;;;;;;;;;;10118413;28;20056;-70
2022/11/05 13:56:48;;;;;;;5.28;3.35;;;;;;;;;;10135898;28;20065;-71
2022/11/05 14:01:57;;;;;;;6.60;3.35;;;;;;;;;;10127360;28;20045;-70
2022/11/05 14:06:52;;;;;;;5.40;3.65;;;;;;;;;;10147729;28;20166;-69
2022/11/05 14:11:54;;;;;;;5.28;3.42;;;;;;;;;;10155570;28;20441;-69
2022/11/05 14:16:50;;;;;;;4.68;3.85;;;;;;;;;;10150840;28;20369;-70
2022/11/05 14:21:52;;;;;;;4.43;3.38;;;;;;;;;;10141210;28;20064;-71
2022/11/05 14:27:08;;;;;;;4.85;3.05;;;;;;;;;;10098756;28;20098;-69
2022/11/05 14:32:22;;;;;;;3.95;3.10;;;;;;;;;;10093574;28;20102;-68
2022/11/05 14:37:32;;;;;;;5.32;3.80;;;;;;;;;;10098954;28;20068;-69
2022/11/05 14:42:28;;;;;;;10.10;3.83;;;;;;;;;;10100576;28;20048;-68
2022/11/05 14:47:23;;;;;;;5.28;4.13;;;;;;;;;;10104027;28;20502;-69
2022/11/05 14:52:17;;;;;;;3.90;3.47;;;;;;;;;;10100743;28;20054;-69
2022/11/05 14:57:15;;;;;;;5.57;4.20;;;;;;;;;;10102687;28;20060;-69
2022/11/05 15:02:17;;;;;;;4.70;4.10;;;;;;;;;;10098927;28;20084;-69
2022/11/05 15:07:28;;;;;;;5.65;3.90;;;;;;;;;;10110509;28;20562;-68
2022/11/05 15:12:46;;;;;;;6.72;3.72;;;;;;;;;;10116303;28;20432;-68
2022/11/05 15:17:57;;;;;;;9.17;3.93;;;;;;;;;;10129132;28;20071;-68
2022/11/05 15:22:55;;;;;;;5.88;4.35;;;;;;;;;;10129994;28;20078;-68
2022/11/05 15:28:04;;;;;;;5.93;4.40;;;;;;;;;;10139461;28;20110;-69
2022/11/05 15:33:18;;;;;;;5.90;3.80;;;;;;;;;;10133215;28;20049;-71
2022/11/05 15:38:30;;;;;;;4.38;3.67;;;;;;;;;;10146434;28;20055;-75
2022/11/05 15:43:23;;;;;;;5.70;3.97;;;;;;;;;;10164823;28;20044;-73
2022/11/05 15:48:18;;;;;;;6.22;4.63;;;;;;;;;;10162898;28;20057;-73
2022/11/05 15:53:38;;;;;;;13.73;8.48;;;;;;;;;;10141337;28;20392;-74
2022/11/05 15:59:15;;;;;;;11.40;7.73;;;;;;;;;;10140789;28;20480;-73
2022/11/05 16:04:30;;;;;;;14.32;9.20;;;;;;;;;;10140318;28;20298;-74
2022/11/05 16:09:28;;;;;;;14.32;8.60;;;;;;;;;;10123477;28;20056;-74
2022/11/05 16:14:41;;;;;;;8.95;5.63;;;;;;;;;;10143694;28;20976;-73
2022/11/05 16:19:57;;;;;;;10.45;6.25;;;;;;;;;;10140457;28;20056;-74
2022/11/05 16:24:51;;;;;;;12.40;6.28;;;;;;;;;;10147608;28;21014;-74
2022/11/05 16:29:49;;;;;;;11.73;6.50;;;;;;;;;;10132596;28;20075;-75
2022/11/05 16:34:51;;;;;;;17.13;6.60;;;;;;;;;;10138996;28;20052;-74
2022/11/05 16:39:46;;;;;;;8.30;6.60;;;;;;;;;;10125417;28;20049;-76
2022/11/05 16:44:41;;;;;;;12.75;5.70;;;;;;;;;;10142266;28;20070;-75
2022/11/05 16:49:37;;;;;;;8.48;6.45;;;;;;;;;;10141664;28;20052;-75
2022/11/05 16:54:32;;;;;;;14.35;10.98;;;;;;;;;;10117958;28;20550;-75
2022/11/05 16:59:26;;;;;;;22.85;16.40;;;;;;;;;;10150602;28;20052;-75
2022/11/05 17:04:20;;;;;;;41.58;33.00;;;;;;;;;;10127950;28;20419;-75
2022/11/05 17:09:15;;;;;;;11.90;7.93;;;;;;;;;;10142180;28;20048;-74
2022/11/05 17:14:11;;;;;;;12.35;6.38;;;;;;;;;;10133424;28;20059;-75
2022/11/05 17:19:06;;;;;;;11.20;6.53;;;;;;;;;;10107558;28;20041;-75
2022/11/05 17:24:00;;;;;;;13.38;6.85;;;;;;;;;;10135105;28;20114;-73
2022/11/05 17:28:56;;;;;;;14.63;8.07;;;;;;;;;;10137517;28;20083;-73
2022/11/05 17:33:49;;;;;;;13.57;7.93;;;;;;;;;;10138095;28;20081;-75
2022/11/05 17:38:42;;;;;;;10.88;7.78;;;;;;;;;;10131193;28;20048;-75
2022/11/05 17:43:37;;;;;;;15.75;9.20;;;;;;;;;;10133227;28;20056;-73
2022/11/05 17:48:30;;;;;;;13.13;9.90;;;;;;;;;;10140890;28;20091;-75
2022/11/05 17:53:24;;;;;;;12.02;8.93;;;;;;;;;;10140580;28;20056;-74
2022/11/05 17:58:18;;;;;;;10.68;8.98;;;;;;;;;;10130790;28;20049;-73
2022/11/05 18:03:12;;;;;;;10.32;7.57;;;;;;;;;;10138997;28;20415;-74
2022/11/05 18:08:07;;;;;;;10.60;7.43;;;;;;;;;;10138703;28;20412;-74
2022/11/05 18:13:01;;;;;;;12.98;8.30;;;;;;;;;;10140039;28;20056;-73
2022/11/05 18:17:56;;;;;;;8.63;6.78;;;;;;;;;;10145243;28;20083;-74
2022/11/05 18:22:49;;;;;;;10.15;6.25;;;;;;;;;;10126659;28;20048;-73
2022/11/05 18:27:42;;;;;;;9.68;6.75;;;;;;;;;;10149961;28;20562;-72
2022/11/05 18:32:35;;;;;;;13.23;7.30;;;;;;;;;;10146175;28;20403;-73
2022/11/05 18:37:28;;;;;;;15.13;7.57;;;;;;;;;;10147235;28;20044;-74
2022/11/05 18:42:21;;;;;;;12.43;8.07;;;;;;;;;;10141563;28;20407;-74
2022/11/05 18:47:14;;;;;;;14.40;7.75;;;;;;;;;;10152962;28;20055;-73
2022/11/05 18:52:09;;;;;;;11.65;7.80;;;;;;;;;;10155811;28;20044;-72
2022/11/05 18:57:03;;;;;;;11.77;7.47;;;;;;;;;;10159818;28;20110;-73
2022/11/05 19:01:56;;;;;;;10.02;6.75;;;;;;;;;;10151747;28;20101;-73
2022/11/05 19:06:50;;;;;;;9.52;5.35;;;;;;;;;;10151328;28;20071;-72
2022/11/05 19:11:43;;;;;;;8.07;5.57;;;;;;;;;;10151223;28;20506;-71
2022/11/05 19:16:36;;;;;;;10.70;6.50;;;;;;;;;;10151107;28;20098;-70
2022/11/05 19:21:30;;;;;;;8.32;6.15;;;;;;;;;;10136581;28;20087;-70
2022/11/05 19:26:24;;;;;;;8.98;6.65;;;;;;;;;;10140999;28;20067;-69
2022/11/05 19:31:22;;;;;;;6.85;6.00;;;;;;;;;;10146201;28;20044;-69
2022/11/05 19:36:17;;;;;;;17.25;11.32;;;;;;;;;;10142610;28;20115;-69
2022/11/05 19:41:12;;;;;;;10.52;9.43;;;;;;;;;;10154506;28;20093;-68
2022/11/05 19:46:10;;;;;;;15.52;7.78;;;;;;;;;;10163003;28;20499;-68
2022/11/05 19:51:25;;;;;;;7.82;4.90;;;;;;;;;;10161314;28;20110;-67
2022/11/05 19:56:23;;;;;;;8.02;5.90;;;;;;;;;;10167657;28;20495;-67
2022/11/05 20:01:18;;;;;;;8.35;6.20;;;;;;;;;;10166100;28;20057;-67
2022/11/05 20:06:19;;;;;;;7.38;6.13;;;;;;;;;;10164735;28;20056;-67
2022/11/05 20:11:13;;;;;;;8.07;5.72;;;;;;;;;;10160085;28;20056;-67
2022/11/05 20:16:07;;;;;;;10.48;4.57;;;;;;;;;;10157249;28;20128;-67
2022/11/05 20:21:03;;;;;;;7.80;5.47;;;;;;;;;;10155154;28;20052;-68
2022/11/05 20:25:57;;;;;;;6.72;4.53;;;;;;;;;;10158152;28;20143;-70
2022/11/05 20:30:51;;;;;;;4.18;3.78;;;;;;;;;;10143195;28;20093;-70
2022/11/05 20:35:45;;;;;;;6.05;5.30;;;;;;;;;;10148453;28;20466;-69
2022/11/05 20:40:39;;;;;;;6.70;4.55;;;;;;;;;;10133583;28;20044;-69
2022/11/05 20:45:32;;;;;;;5.80;4.03;;;;;;;;;;10143631;28;20446;-69
2022/11/05 20:50:26;;;;;;;8.15;4.93;;;;;;;;;;10138654;28;20082;-70
2022/11/05 20:55:19;;;;;;;5.35;4.03;;;;;;;;;;10145293;28;20140;-69
2022/11/05 21:00:14;;;;;;;7.18;3.35;;;;;;;;;;10141194;28;20495;-68
2022/11/05 21:05:09;;;;;;;19.02;13.38;;;;;;;;;;10135839;28;20496;-68
2022/11/05 21:10:04;;;;;;;6.88;4.70;;;;;;;;;;10134835;28;20539;-69
2022/11/05 21:14:58;;;;;;;4.78;3.78;;;;;;;;;;10132000;28;20053;-68
2022/11/05 21:19:52;;;;;;;8.57;4.47;;;;;;;;;;10130059;28;20041;-68
2022/11/05 21:24:46;;;;;;;6.25;4.53;;;;;;;;;;10137939;28;20061;-68
2022/11/05 21:29:39;;;;;;;5.70;4.38;;;;;;;;;;10137955;28;20514;-68
2022/11/05 21:34:34;;;;;;;5.05;3.80;;;;;;;;;;10144457;28;20064;-69
2022/11/05 21:39:28;;;;;;;4.75;3.85;;;;;;;;;;10139878;28;20055;-69
2022/11/05 21:44:21;;;;;;;7.03;4.85;;;;;;;;;;10138667;28;20539;-69
2022/11/05 21:49:14;;;;;;;5.13;3.50;;;;;;;;;;10146929;28;20119;-69
2022/11/05 22:04:40;;;;;;;8.60;4.65;;;;;;;;;;10151322;28;20048;-68
2022/11/05 22:09:33;;;;;;;6.60;4.70;;;;;;;;;;10153295;28;20403;-69
2022/11/05 22:14:27;;;;;;;5.28;3.95;;;;;;;;;;10153687;28;20510;-68
2022/11/05 22:19:21;;;;;;;14.25;9.98;;;;;;;;;;10152890;28;20075;-69
2022/11/05 22:24:14;;;;;;;5.10;4.05;;;;;;;;;;10135402;28;20068;-69
2022/11/05 22:29:07;;;;;;;4.93;4.18;;;;;;;;;;10135376;28;20487;-69
2022/11/05 22:34:01;;;;;;;7.82;4.82;;;;;;;;;;10154726;28;20116;-69
2022/11/05 22:38:54;;;;;;;5.88;4.35;;;;;;;;;;10152367;28;20071;-69
2022/11/05 22:43:48;;;;;;;5.30;3.92;;;;;;;;;;10151547;28;20058;-69
2022/11/05 22:48:40;;;;;;;6.20;4.25;;;;;;;;;;10153960;28;20110;-68
2022/11/05 22:53:34;;;;;;;4.30;3.00;;;;;;;;;;10152004;28;20068;-69
2022/11/05 22:58:27;;;;;;;3.00;2.53;;;;;;;;;;10152373;28;20056;-69
2022/11/05 23:03:20;;;;;;;3.03;2.67;;;;;;;;;;10150518;28;20105;-69
2022/11/05 23:13:26;;;;;;;7.68;5.10;;;;;;;;;;10150767;28;20137;-69
2022/11/05 23:28:43;;;;;;;8.80;5.50;;;;;;;;;;10150894;28;20502;-69
2022/11/05 23:33:37;;;;;;;6.63;4.47;;;;;;;;;;10149458;28;20052;-68
2022/11/05 23:38:34;;;;;;;8.40;5.97;;;;;;;;;;10149917;28;20049;-68
2022/11/05 23:48:39;;;;;;;5.00;2.90;;;;;;;;;;10149854;28;20049;-68
2022/11/05 23:53:35;;;;;;;2.92;2.55;;;;;;;;;;10159306;28;20563;-68
2022/11/05 23:58:28;;;;;;;4.97;3.45;;;;;;;;;;10149357;28;20090;-67
